Time;durP1;ratioP1;P1;durP2;ratioP2;P2;SDS_P1;SDS_P2;PMS_P1;PMS_P2;Temp;Humidity;BMP_temperature;BMP_pressure;BME280_temperature;BME280_humidity;BME280_pressure;Samples;Min_cycle;Max_cycle;Signal;HPM_P1;HPM_P2
2022/03/16 00:02:21;;;;;;;46.15;16.13;;;;;;;0.87;100.00;102560.59;5012000;28;20544;-45
2022/03/16 00:04:50;;;;;;;94.60;17.67;;;;;;;0.76;100.00;102571.72;5012792;28;20513;-47
2022/03/16 00:07:17;;;;;;;48.63;17.13;;;;;;;0.84;100.00;102565.78;5012608;28;20196;-48
2022/03/16 00:09:43;;;;;;;84.63;18.70;;;;;;;0.70;100.00;102576.81;5012598;28;20698;-45
2022/03/16 00:12:09;;;;;;;28.73;16.60;;;;;;;0.89;100.00;102578.25;5012376;28;20659;-44
2022/03/16 00:14:35;;;;;;;31.55;17.42;;;;;;;0.93;100.00;102579.25;5011597;28;20201;-46
2022/03/16 00:17:01;;;;;;;39.38;16.65;;;;;;;0.89;100.00;102585.28;5012649;28;20196;-45
2022/03/16 00:19:26;;;;;;;48.08;17.80;;;;;;;0.65;100.00;102590.72;5012809;28;20519;-46
2022/03/16 00:21:52;;;;;;;22.10;15.10;;;;;;;0.83;100.00;102583.34;5012549;28;20173;-46
2022/03/16 00:24:17;;;;;;;20.67;14.70;;;;;;;0.71;100.00;102590.91;5012053;28;20616;-42
2022/03/16 00:26:43;;;;;;;31.17;16.10;;;;;;;0.63;100.00;102606.47;5012051;28;20193;-42
2022/03/16 00:29:08;;;;;;;36.28;16.20;;;;;;;0.78;100.00;102606.06;5012069;28;20384;-42
2022/03/16 00:31:34;;;;;;;40.58;15.50;;;;;;;0.72;100.00;102611.16;5012144;28;20204;-43
2022/03/16 00:34:00;;;;;;;28.67;15.13;;;;;;;0.68;100.00;102610.19;5009336;28;20557;-42
2022/03/16 00:36:26;;;;;;;27.75;16.15;;;;;;;0.66;100.00;102616.25;5010746;28;20658;-44
2022/03/16 00:38:51;;;;;;;22.80;16.05;;;;;;;0.49;100.00;102619.25;5012418;28;20169;-43
2022/03/16 00:41:17;;;;;;;23.00;15.88;;;;;;;0.70;100.00;102612.84;5010965;28;20176;-44
2022/03/16 00:43:44;;;;;;;23.60;16.08;;;;;;;0.67;100.00;102618.03;4993872;28;20201;-44
2022/03/16 00:46:11;;;;;;;22.60;15.50;;;;;;;0.72;100.00;102624.34;5011901;28;20717;-44
2022/03/16 00:48:36;;;;;;;20.63;14.73;;;;;;;0.77;100.00;102618.38;5012089;28;20168;-44
2022/03/16 00:51:02;;;;;;;25.85;15.82;;;;;;;0.61;100.00;102639.81;5010347;28;20237;-44
2022/03/16 00:53:30;;;;;;;28.77;15.38;;;;;;;0.49;100.00;102628.91;5011435;28;20196;-45
2022/03/16 00:55:56;;;;;;;17.80;14.80;;;;;;;0.46;100.00;102631.41;5011572;28;20173;-44
2022/03/16 00:58:24;;;;;;;20.48;15.73;;;;;;;0.44;100.00;102631.38;5011375;28;20204;-45
2022/03/16 01:00:50;;;;;;;19.60;15.68;;;;;;;0.58;100.00;102624.81;5010704;28;20758;-43
2022/03/16 01:03:15;;;;;;;19.55;15.57;;;;;;;0.45;100.00;102635.81;4994859;28;20327;-44
2022/03/16 01:05:41;;;;;;;20.55;15.55;;;;;;;0.39;100.00;102633.88;5031432;28;20291;-44
2022/03/16 01:08:06;;;;;;;19.25;13.93;;;;;;;0.65;100.00;102644.34;5030557;28;20174;-44
2022/03/16 01:10:32;;;;;;;24.23;16.05;;;;;;;0.72;100.00;102643.72;5032199;28;20280;-44
2022/03/16 01:12:57;;;;;;;29.30;15.88;;;;;;;0.37;100.00;102646.13;5031107;28;20192;-44
2022/03/16 01:15:23;;;;;;;19.67;14.77;;;;;;;0.57;100.00;102649.41;5030359;28;20203;-43
2022/03/16 01:17:52;;;;;;;20.95;15.77;;;;;;;0.48;100.00;102646.47;5030033;28;20255;-43
2022/03/16 01:20:18;;;;;;;33.58;15.15;;;;;;;0.39;100.00;102647.06;5031572;28;20184;-42
2022/03/16 01:22:44;;;;;;;36.03;15.05;;;;;;;0.29;100.00;102650.22;5029630;28;20187;-43
2022/03/16 01:25:10;;;;;;;20.50;15.73;;;;;;;0.32;100.00;102647.69;5031166;28;20168;-43
2022/03/16 01:27:36;;;;;;;68.97;16.20;;;;;;;0.14;100.00;102647.97;5030977;28;20503;-43
2022/03/16 01:30:02;;;;;;;37.08;16.77;;;;;;;0.20;100.00;102639.38;5031223;28;20165;-43
2022/03/16 01:32:27;;;;;;;32.05;15.93;;;;;;;0.34;100.00;102643.34;5031111;28;20172;-42
2022/03/16 01:34:52;;;;;;;18.23;15.05;;;;;;;0.39;100.00;102644.44;5030656;28;20631;-43
2022/03/16 01:37:18;;;;;;;43.95;15.40;;;;;;;0.52;100.00;102645.69;5031303;28;20187;-44
2022/03/16 01:39:43;;;;;;;30.50;15.52;;;;;;;0.51;100.00;102633.38;5029455;28;20176;-43
2022/03/16 01:42:10;;;;;;;21.10;14.60;;;;;;;0.56;100.00;102651.97;5030752;28;20263;-44
2022/03/16 01:44:47;;;;;;;57.03;14.48;;;;;;;0.60;100.00;102649.47;5030868;28;20237;-42
2022/03/16 01:47:15;;;;;;;24.75;13.05;;;;;;;0.56;100.00;102646.69;5030880;28;20551;-44
2022/03/16 01:49:41;;;;;;;20.67;13.18;;;;;;;0.69;100.00;102653.28;5031225;28;20164;-44
2022/03/16 01:52:08;;;;;;;17.25;13.52;;;;;;;0.59;100.00;102652.06;5029101;28;20535;-45
2022/03/16 01:54:38;;;;;;;116.68;15.88;;;;;;;0.23;100.00;102657.94;5030231;28;20195;-44
2022/03/16 01:57:04;;;;;;;92.65;14.80;;;;;;;0.06;100.00;102659.97;5029669;28;20183;-44
2022/03/16 01:59:30;;;;;;;66.97;15.45;;;;;;;0.05;100.00;102666.09;5029565;28;20195;-43
2022/03/16 02:01:56;;;;;;;55.20;15.50;;;;;;;0.10;100.00;102666.25;5029078;28;20176;-43
2022/03/16 02:04:21;;;;;;;54.70;15.60;;;;;;;-0.07;100.00;102665.66;5029046;28;20229;-43
2022/03/16 02:06:47;;;;;;;48.25;15.18;;;;;;;0.04;100.00;102668.69;5030570;28;20188;-44
2022/03/16 02:09:12;;;;;;;79.97;16.38;;;;;;;-0.01;100.00;102671.16;5030486;28;20221;-43
2022/03/16 02:11:38;;;;;;;23.52;13.80;;;;;;;0.12;100.00;102676.00;5030402;28;20172;-44
2022/03/16 02:14:03;;;;;;;49.35;15.68;;;;;;;0.07;100.00;102668.81;5030250;28;20662;-44
2022/03/16 02:16:34;;;;;;;81.80;16.33;;;;;;;-0.06;100.00;102676.28;5029957;28;20198;-44
2022/03/16 02:18:59;;;;;;;49.67;16.00;;;;;;;0.02;100.00;102679.16;5029935;28;20677;-43
2022/03/16 02:21:27;;;;;;;18.67;14.60;;;;;;;-0.02;100.00;102680.81;5030254;28;20203;-43
2022/03/16 02:23:53;;;;;;;27.35;15.73;;;;;;;0.19;100.00;102682.38;5029192;28;20207;-45
2022/03/16 02:26:23;;;;;;;33.67;14.60;;;;;;;0.08;100.00;102682.00;5022053;28;20527;-44
2022/03/16 02:28:49;;;;;;;21.88;14.82;;;;;;;-0.12;100.00;102685.69;5029613;28;20202;-43
2022/03/16 02:31:17;;;;;;;16.67;14.50;;;;;;;-0.11;100.00;102698.94;5029242;28;20180;-45
2022/03/16 02:33:43;;;;;;;15.23;13.40;;;;;;;-0.04;100.00;102697.41;5029379;28;20282;-44
2022/03/16 02:36:09;;;;;;;15.13;12.35;;;;;;;0.04;100.00;102688.00;5028360;28;20679;-43
2022/03/16 02:38:35;;;;;;;17.77;12.77;;;;;;;-0.16;100.00;102700.50;5029676;28;20259;-44
2022/03/16 02:41:00;;;;;;;28.25;13.73;;;;;;;-0.11;100.00;102701.56;5029755;28;20246;-43
2022/03/16 02:43:27;;;;;;;13.55;11.73;;;;;;;-0.07;100.00;102698.19;5028725;28;20191;-44
2022/03/16 02:45:53;;;;;;;24.77;11.68;;;;;;;-0.11;100.00;102698.00;5029376;28;20188;-44
2022/03/16 02:48:19;;;;;;;15.32;11.07;;;;;;;-0.38;100.00;102703.19;5029452;28;20230;-44
2022/03/16 02:50:44;;;;;;;19.25;11.63;;;;;;;-0.45;100.00;102707.34;5029448;28;20172;-45
2022/03/16 02:53:09;;;;;;;30.60;11.40;;;;;;;-0.29;100.00;102693.88;5028991;28;20266;-45
2022/03/16 02:55:35;;;;;;;18.38;10.80;;;;;;;-0.39;100.00;102699.66;5030144;28;20176;-44
2022/03/16 02:58:00;;;;;;;56.67;10.45;;;;;;;-0.55;100.00;102703.44;5033813;28;20881;-44
2022/03/16 03:00:26;;;;;;;96.07;11.70;;;;;;;-0.67;100.00;102708.25;5033495;28;20160;-44
2022/03/16 03:02:53;;;;;;;26.17;11.00;;;;;;;-0.58;100.00;102711.25;5032819;28;20211;-44
2022/03/16 03:05:18;;;;;;;35.75;10.63;;;;;;;-0.48;100.00;102713.38;5015743;28;20557;-43
2022/03/16 03:07:44;;;;;;;91.90;12.25;;;;;;;-0.58;100.00;102721.78;5013532;28;20213;-44
2022/03/16 03:10:09;;;;;;;34.15;11.43;;;;;;;-0.45;100.00;102713.50;5013513;28;20184;-44
2022/03/16 03:12:35;;;;;;;58.42;12.02;;;;;;;-0.59;100.00;102722.63;5012702;28;20164;-45
2022/03/16 03:15:03;;;;;;;47.35;11.05;;;;;;;-0.74;100.00;102715.03;5013787;28;20605;-45
2022/03/16 03:17:28;;;;;;;25.13;10.88;;;;;;;-0.55;100.00;102719.25;5013427;28;20600;-44
2022/03/16 03:19:53;;;;;;;16.23;10.90;;;;;;;-0.46;100.00;102711.72;5014053;28;20259;-44
2022/03/16 03:22:19;;;;;;;22.08;11.27;;;;;;;-0.50;100.00;102712.44;5013102;28;20274;-43
2022/03/16 03:24:44;;;;;;;26.33;11.95;;;;;;;-0.47;100.00;102709.00;5013275;28;20204;-44
2022/03/16 03:27:10;;;;;;;64.05;12.45;;;;;;;-0.67;100.00;102718.78;5013653;28;20258;-43
2022/03/16 03:29:36;;;;;;;19.73;11.38;;;;;;;-0.68;100.00;102715.28;5011758;28;20287;-44
2022/03/16 03:32:02;;;;;;;41.53;13.20;;;;;;;-0.54;100.00;102714.91;5013458;28;20187;-44
2022/03/16 03:34:27;;;;;;;24.60;11.55;;;;;;;-0.54;100.00;102710.53;5013151;28;20251;-45
2022/03/16 03:36:53;;;;;;;30.65;12.50;;;;;;;-0.67;100.00;102690.72;5013037;28;20201;-44
2022/03/16 03:39:18;;;;;;;25.85;11.98;;;;;;;-0.61;100.00;102695.34;5013055;28;20181;-44
2022/03/16 03:41:44;;;;;;;45.22;12.35;;;;;;;-0.85;100.00;102700.56;5012563;28;20168;-43
2022/03/16 03:44:09;;;;;;;29.15;11.90;;;;;;;-1.03;100.00;102692.81;5012981;28;20279;-44
2022/03/16 03:46:35;;;;;;;27.90;11.80;;;;;;;-0.87;100.00;102689.97;5012874;28;20647;-43
2022/03/16 03:49:00;;;;;;;45.97;12.05;;;;;;;-0.77;100.00;102696.47;5012696;28;20186;-44
2022/03/16 03:51:26;;;;;;;93.57;13.27;;;;;;;-0.87;100.00;102687.34;5013272;28;20231;-44
2022/03/16 03:53:51;;;;;;;79.32;13.27;;;;;;;-0.81;100.00;102691.91;5012510;28;20216;-45
2022/03/16 03:56:17;;;;;;;55.00;11.80;;;;;;;-0.84;100.00;102682.19;5012899;28;20167;-43
2022/03/16 03:58:42;;;;;;;89.47;13.43;;;;;;;-1.00;100.00;102692.97;5012792;28;20218;-44
2022/03/16 04:01:08;;;;;;;87.30;12.52;;;;;;;-0.88;100.00;102695.16;5012971;28;20231;-45
2022/03/16 04:03:33;;;;;;;95.13;12.73;;;;;;;-0.89;100.00;102701.28;5012200;28;20192;-42
2022/03/16 04:06:00;;;;;;;97.32;13.15;;;;;;;-0.94;100.00;102682.69;5012648;28;20239;-43
2022/03/16 04:08:25;;;;;;;45.28;12.25;;;;;;;-0.80;100.00;102692.84;5011668;28;20192;-44
2022/03/16 04:10:51;;;;;;;119.00;12.73;;;;;;;-0.93;100.00;102687.09;5011270;28;20169;-43
2022/03/16 04:13:16;;;;;;;177.52;14.02;;;;;;;-1.07;100.00;102701.47;5011958;28;20277;-44
2022/03/16 04:15:42;;;;;;;61.22;11.70;;;;;;;-1.13;100.00;102702.09;5012532;28;20275;-44
2022/03/16 04:18:07;;;;;;;42.63;12.50;;;;;;;-0.95;100.00;102695.78;5012518;28;20188;-44
2022/03/16 04:20:33;;;;;;;13.45;10.82;;;;;;;-0.72;100.00;102709.81;5012528;28;20172;-45
2022/03/16 04:22:58;;;;;;;50.92;13.30;;;;;;;-0.73;100.00;102723.81;5011854;28;20210;-44
2022/03/16 04:25:23;;;;;;;22.30;13.05;;;;;;;-0.87;100.00;102712.75;5013282;28;20667;-44
2022/03/16 04:27:49;;;;;;;55.35;13.52;;;;;;;-0.72;100.00;102725.59;5027033;28;20318;-44
2022/03/16 04:30:14;;;;;;;17.38;11.93;;;;;;;-0.58;100.00;102726.16;5031715;28;20188;-44
2022/03/16 04:32:40;;;;;;;34.70;12.73;;;;;;;-0.57;100.00;102726.19;5031518;28;20177;-44
2022/03/16 04:35:06;;;;;;;42.25;12.52;;;;;;;-0.54;100.00;102725.44;5026240;28;20641;-44
2022/03/16 04:37:32;;;;;;;34.10;12.70;;;;;;;-0.78;100.00;102735.91;5030283;28;20176;-42
2022/03/16 04:39:58;;;;;;;63.05;13.20;;;;;;;-0.90;100.00;102729.31;5032153;28;20222;-45
2022/03/16 04:42:23;;;;;;;158.80;15.35;;;;;;;-1.22;100.00;102724.47;5029647;28;20623;-44
2022/03/16 04:44:49;;;;;;;93.75;14.50;;;;;;;-1.15;100.00;102730.06;5031649;28;20623;-44
2022/03/16 04:47:14;;;;;;;26.92;12.27;;;;;;;-0.89;100.00;102732.84;5031850;28;20623;-44
2022/03/16 04:49:40;;;;;;;41.63;13.05;;;;;;;-0.82;100.00;102718.19;5031875;28;20163;-43
2022/03/16 04:52:05;;;;;;;75.05;12.77;;;;;;;-1.01;100.00;102732.34;5031663;28;20164;-43
2022/03/16 04:54:31;;;;;;;58.70;12.80;;;;;;;-1.12;100.00;102726.66;5031315;28;20227;-44
2022/03/16 04:56:56;;;;;;;65.28;13.38;;;;;;;-1.04;100.00;102736.66;5031427;28;20164;-43
2022/03/16 04:59:22;;;;;;;34.50;13.07;;;;;;;-1.10;100.00;102730.25;5031330;28;20201;-44
2022/03/16 05:01:47;;;;;;;43.15;12.93;;;;;;;-1.16;100.00;102737.88;5030909;28;20176;-43
2022/03/16 05:04:13;;;;;;;20.02;12.32;;;;;;;-0.96;100.00;102734.34;5022212;28;20215;-44
2022/03/16 05:06:38;;;;;;;27.38;12.95;;;;;;;-0.89;100.00;102739.00;5011376;28;20204;-43
2022/03/16 05:09:04;;;;;;;29.45;13.60;;;;;;;-0.81;100.00;102738.41;5011633;28;20183;-43
2022/03/16 05:11:29;;;;;;;32.45;13.23;;;;;;;-0.85;100.00;102747.94;5011678;28;20169;-44
2022/03/16 05:13:56;;;;;;;38.88;12.75;;;;;;;-0.80;100.00;102743.72;5010583;28;20192;-44
2022/03/16 05:16:21;;;;;;;51.50;14.23;;;;;;;-0.85;100.00;102756.72;5011472;28;20188;-44
2022/03/16 05:18:47;;;;;;;23.25;12.52;;;;;;;-0.84;100.00;102754.97;5010888;28;20212;-43
2022/03/16 05:21:12;;;;;;;18.08;12.52;;;;;;;-0.88;100.00;102756.56;5010638;28;20290;-43
2022/03/16 05:23:38;;;;;;;39.80;13.10;;;;;;;-0.83;100.00;102746.25;5010464;28;20292;-45
2022/03/16 05:26:04;;;;;;;56.78;13.48;;;;;;;-0.98;100.00;102758.81;5010512;28;20204;-44
2022/03/16 05:28:29;;;;;;;43.17;13.80;;;;;;;-0.88;100.00;102751.31;5010597;28;20663;-43
2022/03/16 05:30:55;;;;;;;104.57;15.10;;;;;;;-0.91;100.00;102759.09;5010607;28;20168;-44
2022/03/16 05:33:21;;;;;;;145.68;15.43;;;;;;;-1.10;100.00;102760.06;5009901;28;20738;-43
2022/03/16 05:35:47;;;;;;;59.03;13.25;;;;;;;-1.02;100.00;102755.13;5010704;28;20168;-44
2022/03/16 05:38:12;;;;;;;186.93;16.65;;;;;;;-1.11;100.00;102754.78;5010449;28;20173;-43
2022/03/16 05:40:39;;;;;;;27.88;12.18;;;;;;;-0.89;100.00;102765.31;5010535;28;20172;-44
2022/03/16 05:43:05;;;;;;;151.82;15.35;;;;;;;-1.06;100.00;102758.47;5009835;28;20583;-44
2022/03/16 05:45:30;;;;;;;15.10;11.45;;;;;;;-0.94;100.00;102761.63;5010636;28;20165;-45
2022/03/16 05:47:56;;;;;;;68.30;12.93;;;;;;;-0.92;100.00;102765.22;5009975;28;20216;-44
2022/03/16 05:50:21;;;;;;;112.78;14.60;;;;;;;-1.11;100.00;102765.31;5010314;28;20215;-44
2022/03/16 05:52:47;;;;;;;88.47;13.10;;;;;;;-1.20;100.00;102767.53;5009293;28;20192;-43
2022/03/16 05:55:13;;;;;;;90.63;14.23;;;;;;;-1.19;100.00;102774.59;5010415;28;20192;-43
2022/03/16 05:57:40;;;;;;;78.78;13.82;;;;;;;-1.19;100.00;102762.34;5010088;28;20642;-43
2022/03/16 06:00:07;;;;;;;111.18;14.82;;;;;;;-1.31;100.00;102769.75;5010616;28;20173;-44
2022/03/16 06:02:33;;;;;;;36.42;12.30;;;;;;;-1.34;100.00;102767.84;5009639;28;20203;-44
2022/03/16 06:04:58;;;;;;;82.20;14.70;;;;;;;-1.44;100.00;102757.81;5010033;28;20691;-43
2022/03/16 06:07:23;;;;;;;26.13;14.20;;;;;;;-1.25;100.00;102752.47;5010036;28;20227;-44
2022/03/16 06:09:49;;;;;;;65.45;14.20;;;;;;;-1.37;100.00;102773.00;5009579;28;20278;-45
2022/03/16 06:12:14;;;;;;;25.77;14.77;;;;;;;-1.22;100.00;102770.13;5009404;28;20181;-44
2022/03/16 06:14:40;;;;;;;31.13;13.38;;;;;;;-1.31;100.00;102772.38;5008547;28;20284;-44
2022/03/16 06:17:05;;;;;;;20.88;12.73;;;;;;;-1.26;100.00;102774.34;5009895;28;20172;-44
2022/03/16 06:19:31;;;;;;;32.25;14.32;;;;;;;-1.08;100.00;102781.19;5010046;28;20179;-42
2022/03/16 06:21:56;;;;;;;26.67;14.70;;;;;;;-0.98;100.00;102788.63;5008606;28;20168;-44
2022/03/16 06:24:22;;;;;;;38.92;13.70;;;;;;;-1.05;100.00;102789.19;5009682;28;20204;-43
2022/03/16 06:26:47;;;;;;;38.53;13.23;;;;;;;-1.13;100.00;102786.28;5010062;28;20228;-43
2022/03/16 06:29:13;;;;;;;16.80;13.25;;;;;;;-0.85;100.00;102792.66;5009972;28;20173;-44
2022/03/16 06:31:38;;;;;;;25.80;14.05;;;;;;;-0.86;100.00;102791.75;5009232;28;20185;-43
2022/03/16 06:34:03;;;;;;;19.48;13.85;;;;;;;-0.74;100.00;102790.47;5009498;28;20666;-44
2022/03/16 06:36:29;;;;;;;37.63;14.07;;;;;;;-0.69;100.00;102786.28;5009977;28;20177;-43
2022/03/16 06:38:55;;;;;;;50.92;13.80;;;;;;;-0.79;100.00;102798.16;5009974;28;20560;-41
2022/03/16 06:41:21;;;;;;;53.70;13.38;;;;;;;-0.66;100.00;102812.69;5009608;28;20352;-43
2022/03/16 06:43:47;;;;;;;40.83;13.02;;;;;;;-0.56;100.00;102806.97;5009173;28;20644;-42
2022/03/16 06:46:13;;;;;;;37.15;12.98;;;;;;;-0.56;100.00;102813.97;5009241;28;20206;-44
2022/03/16 06:48:38;;;;;;;26.70;12.07;;;;;;;-0.55;100.00;102819.28;5009662;28;20658;-42
2022/03/16 06:51:04;;;;;;;55.03;13.20;;;;;;;-0.62;100.00;102817.25;5009671;28;20180;-42
2022/03/16 06:53:29;;;;;;;31.63;12.15;;;;;;;-0.56;100.00;102820.13;5009032;28;20197;-42
2022/03/16 06:55:55;;;;;;;51.00;12.88;;;;;;;-0.58;100.00;102820.91;5010040;28;20180;-42
2022/03/16 06:58:20;;;;;;;34.58;12.77;;;;;;;-0.37;100.00;102820.84;5009720;28;20616;-44
2022/03/16 07:00:46;;;;;;;30.85;12.50;;;;;;;-0.24;100.00;102828.38;5009682;28;20653;-42
2022/03/16 07:03:11;;;;;;;49.83;14.82;;;;;;;-0.05;100.00;102828.25;5009958;28;20290;-42
2022/03/16 07:05:39;;;;;;;41.10;13.45;;;;;;;0.00;100.00;102828.44;5029230;28;20176;-43
2022/03/16 07:08:07;;;;;;;43.00;13.60;;;;;;;0.02;100.00;102836.38;5048782;28;20168;-42
2022/03/16 07:10:34;;;;;;;28.60;13.82;;;;;;;0.16;100.00;102830.78;5028067;28;20176;-42
2022/03/16 07:13:00;;;;;;;113.43;15.63;;;;;;;-0.05;100.00;102833.50;5028163;28;20627;-43
2022/03/16 07:15:27;;;;;;;74.95;14.45;;;;;;;0.04;100.00;102834.69;5028939;28;20180;-42
2022/03/16 07:17:53;;;;;;;96.90;16.25;;;;;;;0.12;100.00;102833.25;5028764;28;20218;-43
2022/03/16 07:20:19;;;;;;;84.32;14.75;;;;;;;0.18;100.00;102831.75;5029325;28;20589;-43
2022/03/16 07:22:45;;;;;;;129.77;17.30;;;;;;;0.13;100.00;102840.31;5028392;28;20830;-43
2022/03/16 07:25:11;;;;;;;146.70;16.23;;;;;;;0.16;100.00;102845.72;5027748;28;20188;-43
2022/03/16 07:27:38;;;;;;;104.43;17.60;;;;;;;0.29;100.00;102841.78;5028039;28;20219;-44
2022/03/16 07:30:09;;;;;;;54.63;14.50;;;;;;;0.43;100.00;102840.53;5028886;28;20219;-42
2022/03/16 07:32:39;;;;;;;137.48;17.63;;;;;;;0.55;100.00;102851.53;5028107;28;20395;-46
2022/03/16 07:35:06;;;;;;;114.75;15.95;;;;;;;0.69;100.00;102844.09;5028943;28;20243;-45
2022/03/16 07:37:32;;;;;;;93.78;14.88;;;;;;;0.60;100.00;102855.22;5029037;28;20172;-44
2022/03/16 07:39:57;;;;;;;129.52;15.75;;;;;;;0.63;100.00;102854.44;5028763;28;20243;-44
2022/03/16 07:42:23;;;;;;;79.15;15.55;;;;;;;0.74;100.00;102863.59;5029188;28;20673;-45
2022/03/16 07:44:50;;;;;;;36.13;14.23;;;;;;;0.99;100.00;102861.84;5032256;28;20195;-49
2022/03/16 07:47:16;;;;;;;54.72;14.25;;;;;;;1.02;100.00;102862.81;5031948;28;20208;-46
2022/03/16 07:49:41;;;;;;;44.92;13.80;;;;;;;0.98;100.00;102854.75;5052707;28;20164;-44
2022/03/16 07:52:07;;;;;;;98.30;16.10;;;;;;;0.64;100.00;102861.50;5052761;28;20641;-45
2022/03/16 07:54:32;;;;;;;78.18;15.52;;;;;;;0.79;100.00;102862.06;5051751;28;20217;-44
2022/03/16 07:56:57;;;;;;;120.53;18.20;;;;;;;0.68;100.00;102860.78;5052872;28;20178;-45
2022/03/16 07:59:23;;;;;;;29.95;16.23;;;;;;;0.94;100.00;102858.13;5052410;28;20175;-49
2022/03/16 08:01:48;;;;;;;44.28;19.05;;;;;;;1.08;100.00;102864.78;5050541;28;20228;-44
2022/03/16 08:04:15;;;;;;;45.67;19.45;;;;;;;1.06;100.00;102861.19;5033941;28;20220;-45
2022/03/16 08:06:41;;;;;;;24.95;17.45;;;;;;;0.97;100.00;102866.16;5025443;28;20203;-45
2022/03/16 08:09:07;;;;;;;55.97;19.30;;;;;;;1.19;100.00;102867.78;5032083;28;20673;-43
2022/03/16 08:11:32;;;;;;;27.40;18.02;;;;;;;1.27;100.00;102866.31;5031715;28;20254;-43
2022/03/16 08:13:58;;;;;;;95.10;17.77;;;;;;;1.20;100.00;102870.47;5031961;28;20187;-47
2022/03/16 08:16:23;;;;;;;64.10;15.43;;;;;;;1.17;100.00;102867.72;5032163;28;20203;-43
2022/03/16 08:18:49;;;;;;;72.20;16.30;;;;;;;1.17;100.00;102870.38;5032611;28;20159;-45
2022/03/16 08:21:14;;;;;;;38.97;15.32;;;;;;;1.24;100.00;102867.06;5031665;28;20179;-49
2022/03/16 08:23:40;;;;;;;46.45;15.63;;;;;;;1.35;100.00;102864.78;5031809;28;20194;-46
2022/03/16 08:26:05;;;;;;;35.58;14.32;;;;;;;1.34;100.00;102873.56;5031524;28;20868;-44
2022/03/16 08:28:30;;;;;;;52.40;14.75;;;;;;;1.45;100.00;102871.28;5031998;28;20526;-46
2022/03/16 08:30:56;;;;;;;61.20;15.65;;;;;;;1.43;100.00;102870.34;5031862;28;20548;-44
2022/03/16 08:33:23;;;;;;;31.20;15.07;;;;;;;1.41;100.00;102872.03;5031918;28;20200;-45
2022/03/16 08:35:49;;;;;;;28.70;14.85;;;;;;;1.67;100.00;102871.97;5030403;28;20215;-46
2022/03/16 08:38:15;;;;;;;20.27;14.60;;;;;;;1.59;100.00;102872.59;5031217;28;20639;-45
2022/03/16 08:40:41;;;;;;;33.45;14.85;;;;;;;1.79;100.00;102862.69;5031229;28;20248;-45
2022/03/16 08:43:08;;;;;;;32.80;14.35;;;;;;;1.80;100.00;102863.56;5030947;28;20740;-45
2022/03/16 08:45:33;;;;;;;38.60;15.00;;;;;;;1.76;100.00;102862.56;5047806;28;20270;-45
2022/03/16 08:47:59;;;;;;;91.32;16.08;;;;;;;1.76;100.00;102866.97;5051507;28;20339;-48
2022/03/16 08:50:25;;;;;;;61.05;15.35;;;;;;;1.73;100.00;102862.47;5050691;28;20179;-47
2022/03/16 08:52:50;;;;;;;25.92;15.32;;;;;;;1.83;100.00;102861.00;5050216;28;20199;-44
2022/03/16 08:55:16;;;;;;;23.42;14.55;;;;;;;2.02;100.00;102866.00;5050958;28;20167;-44
2022/03/16 08:57:45;;;;;;;39.40;15.40;;;;;;;2.06;100.00;102853.78;5051518;28;20202;-43
2022/03/16 09:00:15;;;;;;;41.92;14.57;;;;;;;1.97;100.00;102861.44;5051492;28;20179;-42
2022/03/16 09:02:41;;;;;;;19.55;14.25;;;;;;;2.11;100.00;102848.63;5050646;28;20171;-42
2022/03/16 09:05:07;;;;;;;50.70;14.75;;;;;;;2.05;100.00;102849.31;5018408;28;20588;-42
2022/03/16 09:07:33;;;;;;;33.13;14.40;;;;;;;1.98;100.00;102850.88;5029876;28;20206;-44
2022/03/16 09:09:58;;;;;;;22.75;13.77;;;;;;;2.05;100.00;102859.91;5030892;28;20193;-42
2022/03/16 09:12:24;;;;;;;30.77;14.82;;;;;;;2.19;100.00;102852.41;5026645;28;20618;-43
2022/03/16 09:14:49;;;;;;;26.33;15.50;;;;;;;2.16;100.00;102857.56;5028479;28;20290;-42
2022/03/16 09:17:17;;;;;;;20.30;13.52;;;;;;;1.98;100.00;102866.75;5030857;28;20215;-42
2022/03/16 09:19:43;;;;;;;19.35;14.27;;;;;;;2.08;100.00;102865.31;5030944;28;20230;-42
2022/03/16 09:22:09;;;;;;;24.40;14.88;;;;;;;2.14;100.00;102870.75;5030825;28;20574;-43
2022/03/16 09:24:38;;;;;;;22.15;14.50;;;;;;;2.47;100.00;102857.63;5030255;28;20200;-42
2022/03/16 09:27:05;;;;;;;20.75;14.35;;;;;;;2.55;100.00;102868.38;5030714;28;20203;-42
2022/03/16 09:29:30;;;;;;;17.40;13.32;;;;;;;2.58;100.00;102884.38;5028728;28;20344;-42
2022/03/16 09:31:56;;;;;;;18.45;13.63;;;;;;;2.62;100.00;102880.03;5030496;28;20853;-42
2022/03/16 09:34:21;;;;;;;21.35;14.18;;;;;;;2.83;100.00;102885.03;5031323;28;20222;-42
2022/03/16 09:36:48;;;;;;;16.90;12.63;;;;;;;2.80;100.00;102896.44;5050587;28;20159;-44
2022/03/16 09:39:13;;;;;;;22.60;15.68;;;;;;;2.85;100.00;102900.09;5038593;28;20178;-44
2022/03/16 09:41:39;;;;;;;15.63;12.20;;;;;;;2.88;100.00;102897.53;5029611;28;20161;-42
2022/03/16 09:44:06;;;;;;;18.50;11.65;;;;;;;2.92;100.00;102902.91;5030371;28;20196;-45
2022/03/16 09:46:36;;;;;;;17.27;12.70;;;;;;;3.20;100.00;102899.25;5030078;28;20224;-46
2022/03/16 09:49:04;;;;;;;19.50;14.02;;;;;;;3.14;100.00;102897.31;5030341;28;20554;-44
2022/03/16 09:51:35;;;;;;;28.10;20.75;;;;;;;3.25;100.00;102903.78;5030112;28;20191;-44
2022/03/16 09:54:05;;;;;;;22.35;16.63;;;;;;;2.90;100.00;102897.56;5029820;28;20210;-45
2022/03/16 09:56:33;;;;;;;21.17;15.40;;;;;;;3.03;100.00;102898.78;5030646;28;20258;-45
2022/03/16 09:58:58;;;;;;;18.65;14.85;;;;;;;3.15;100.00;102899.13;5030347;28;20635;-46
2022/03/16 10:01:24;;;;;;;18.50;13.50;;;;;;;3.25;100.00;102897.59;5029850;28;20207;-46
2022/03/16 10:03:50;;;;;;;13.50;10.57;;;;;;;3.26;100.00;102910.00;5027515;28;20208;-48
2022/03/16 10:06:17;;;;;;;13.90;11.15;;;;;;;3.41;100.00;102899.78;5030283;28;20206;-47
2022/03/16 10:13:13;;;;;;;18.73;11.32;;;;;;;3.61;100.00;102909.97;5030380;28;20276;-47
2022/03/16 10:14:15;;;;;;;13.20;10.88;;;;;;;3.78;100.00;102911.25;5029642;28;20275;-47
2022/03/16 10:19:48;;;;;;;13.18;10.88;;;;;;;3.72;100.00;102919.97;5028529;28;20191;-47
2022/03/16 10:22:27;;;;;;;10.48;8.63;;;;;;;3.29;100.00;102913.59;5029376;28;20169;-47
2022/03/16 10:25:00;;;;;;;10.02;7.82;;;;;;;3.59;100.00;102919.66;5029481;28;20590;-46
2022/03/16 10:27:26;;;;;;;10.38;8.55;;;;;;;3.61;100.00;102916.16;5030096;28;20282;-46
2022/03/16 10:29:52;;;;;;;10.88;7.15;;;;;;;3.93;100.00;102913.34;5029688;28;20316;-47
2022/03/16 10:32:21;;;;;;;9.18;7.85;;;;;;;4.03;100.00;102915.38;5029827;28;20306;-44
2022/03/16 10:34:55;;;;;;;11.48;7.75;;;;;;;4.17;100.00;102928.03;5028507;28;20789;-46
2022/03/16 10:37:22;;;;;;;10.40;8.00;;;;;;;4.37;100.00;102926.69;5029546;28;20237;-46
2022/03/16 10:39:50;;;;;;;10.05;7.60;;;;;;;4.43;100.00;102918.00;5029850;28;20171;-47
2022/03/16 10:48:25;;;;;;;8.73;6.82;;;;;;;4.61;100.00;102914.81;5029647;28;20212;-47
2022/03/16 10:51:02;;;;;;;7.75;6.75;;;;;;;4.60;100.00;102923.66;5011181;28;20199;-47
2022/03/16 10:53:30;;;;;;;8.63;6.13;;;;;;;4.87;99.79;102913.53;5008907;28;20206;-49
2022/03/16 10:55:59;;;;;;;7.00;6.18;;;;;;;4.95;98.95;102927.00;5029338;28;20699;-46
2022/03/16 10:58:27;;;;;;;7.50;6.03;;;;;;;5.07;98.23;102926.31;5029683;28;20226;-46
2022/03/16 11:00:53;;;;;;;8.10;6.15;;;;;;;5.07;97.41;102924.56;5029537;28;20516;-47
2022/03/16 11:03:23;;;;;;;8.32;6.32;;;;;;;5.11;96.56;102929.03;5027913;28;20191;-48
2022/03/16 11:05:49;;;;;;;9.35;7.25;;;;;;;5.12;96.83;102925.53;5029825;28;20196;-48
2022/03/16 11:08:15;;;;;;;7.45;6.75;;;;;;;5.19;96.91;102923.88;5029907;28;20581;-47
2022/03/16 11:10:42;;;;;;;8.48;6.95;;;;;;;5.26;96.28;102912.47;5028635;28;20179;-48
2022/03/16 11:13:28;;;;;;;9.82;6.70;;;;;;;5.46;95.47;102914.59;5027613;28;20192;-47
2022/03/16 11:15:56;;;;;;;7.63;6.82;;;;;;;5.57;95.47;102913.00;5029642;28;20180;-45